createdAt,value
2022-11-28T00:01:39.544Z,14.70
2022-11-28T00:04:07.920Z,14.60
2022-11-28T00:06:44.846Z,13.50
2022-11-28T00:09:17.529Z,13.50
2022-11-28T00:11:48.158Z,15.30
2022-11-28T00:14:17.669Z,15.80
2022-11-28T00:16:46.403Z,15.40
2022-11-28T00:19:13.979Z,14.40
2022-11-28T00:21:41.774Z,14.00
2022-11-28T00:24:09.749Z,14.00
2022-11-28T00:26:41.680Z,13.70
2022-11-28T00:29:10.627Z,14.00
2022-11-28T00:31:41.863Z,13.80
2022-11-28T00:34:12.713Z,13.40
2022-11-28T00:36:40.898Z,13.50
2022-11-28T00:39:08.279Z,13.40
2022-11-28T00:41:35.702Z,14.00
2022-11-28T00:44:04.281Z,13.60
2022-11-28T00:46:32.174Z,11.50
2022-11-28T00:49:00.244Z,13.40
2022-11-28T00:51:31.533Z,13.80
2022-11-28T00:54:05.541Z,13.80
2022-11-28T00:56:36.999Z,13.90
2022-11-28T00:59:04.756Z,13.50
2022-11-28T01:01:39.155Z,13.20
2022-11-28T01:04:09.421Z,14.10
2022-11-28T01:06:41.239Z,13.00
2022-11-28T01:09:15.667Z,13.80
2022-11-28T01:11:44.284Z,13.30
2022-11-28T01:14:12.775Z,13.90
2022-11-28T01:16:41.027Z,13.20
2022-11-28T01:19:08.610Z,14.50
2022-11-28T01:21:36.505Z,13.70
2022-11-28T01:24:04.279Z,13.00
2022-11-28T01:26:31.614Z,13.80
2022-11-28T01:29:00.762Z,13.60
2022-11-28T01:31:31.644Z,12.80
2022-11-28T01:33:59.354Z,13.20
2022-11-28T01:36:27.113Z,14.60
2022-11-28T01:38:55.097Z,13.60
2022-11-28T01:41:28.105Z,14.30
2022-11-28T01:44:11.777Z,14.00
2022-11-28T01:46:39.315Z,13.90
2022-11-28T01:49:20.268Z,14.20
2022-11-28T01:51:57.945Z,13.50
2022-11-28T01:54:26.268Z,13.20
2022-11-28T01:57:14.162Z,14.00
2022-11-28T01:59:54.235Z,13.30
2022-11-28T02:02:48.097Z,13.20
2022-11-28T02:05:18.227Z,14.30
2022-11-28T02:07:48.043Z,13.30
2022-11-28T02:10:33.482Z,12.70
2022-11-28T02:13:10.400Z,13.60
2022-11-28T02:16:27.923Z,12.50
2022-11-28T02:18:55.475Z,13.10
2022-11-28T02:21:39.215Z,13.50
2022-11-28T02:24:31.998Z,13.30
2022-11-28T02:27:08.124Z,12.10
2022-11-28T02:30:10.801Z,13.40
2022-11-28T02:33:06.954Z,12.60
2022-11-28T02:36:09.848Z,12.80
2022-11-28T02:39:16.585Z,13.40
2022-11-28T02:42:10.570Z,11.80
2022-11-28T02:44:54.330Z,12.30
2022-11-28T02:47:41.018Z,11.80
2022-11-28T02:50:19.424Z,13.80
2022-11-28T02:52:52.134Z,13.50
2022-11-28T02:55:21.403Z,12.50
2022-11-28T02:57:54.313Z,12.00
2022-11-28T03:00:35.587Z,12.80
2022-11-28T03:03:21.478Z,12.40
2022-11-28T03:06:31.043Z,11.90
2022-11-28T03:09:13.521Z,12.10
2022-11-28T03:12:27.657Z,12.70
2022-11-28T03:15:06.022Z,12.40
2022-11-28T03:18:09.470Z,12.00
2022-11-28T03:21:01.488Z,13.30
2022-11-28T03:23:37.209Z,13.00
2022-11-28T03:26:17.368Z,12.60
2022-11-28T03:29:00.740Z,13.40
2022-11-28T03:31:51.940Z,12.70
2022-11-28T03:34:23.127Z,14.20
2022-11-28T03:37:06.773Z,13.20
2022-11-28T03:39:41.021Z,13.30
2022-11-28T03:42:34.072Z,13.40
2022-11-28T03:45:18.109Z,12.60
2022-11-28T03:47:55.393Z,11.80
2022-11-28T03:54:25.140Z,12.30
2022-11-28T03:57:02.737Z,12.40
2022-11-28T03:59:42.155Z,13.30
2022-11-28T04:02:57.279Z,12.70
2022-11-28T04:06:09.883Z,13.60
2022-11-28T04:08:43.404Z,12.70
2022-11-28T04:11:54.518Z,13.10
2022-11-28T04:18:16.945Z,14.40
2022-11-28T04:21:07.183Z,13.00
2022-11-28T04:25:01.659Z,12.40
2022-11-28T04:31:06.770Z,12.30
2022-11-28T04:33:42.334Z,13.50
2022-11-28T04:36:18.800Z,12.90
2022-11-28T04:43:04.031Z,12.90
2022-11-28T04:46:03.022Z,12.70
2022-11-28T04:56:06.609Z,13.10
2022-11-28T04:58:38.214Z,12.40
2022-11-28T05:01:09.664Z,14.60
2022-11-28T05:03:42.402Z,14.70
2022-11-28T05:06:10.839Z,13.90
2022-11-28T05:08:38.132Z,15.10
2022-11-28T05:11:05.761Z,15.00
2022-11-28T05:13:34.073Z,13.10
2022-11-28T05:16:03.021Z,13.60
2022-11-28T05:18:31.097Z,12.10
2022-11-28T05:20:59.396Z,12.30
2022-11-28T05:23:27.315Z,12.00
2022-11-28T05:25:55.189Z,12.90
2022-11-28T05:28:22.788Z,12.20
2022-11-28T05:30:58.967Z,11.30
2022-11-28T05:33:28.792Z,11.30
2022-11-28T05:36:02.774Z,11.20
2022-11-28T05:38:33.102Z,11.60
2022-11-28T05:41:02.379Z,11.70
2022-11-28T05:43:31.479Z,11.20
2022-11-28T05:45:59.510Z,11.60
2022-11-28T05:48:28.029Z,11.60
2022-11-28T05:50:57.381Z,11.90
2022-11-28T05:53:25.765Z,12.10
2022-11-28T05:55:53.566Z,12.70
2022-11-28T05:58:21.373Z,11.80
2022-11-28T06:00:49.322Z,12.90
2022-11-28T06:03:17.155Z,12.50
2022-11-28T06:05:46.321Z,11.00
2022-11-28T06:08:22.702Z,11.40
2022-11-28T06:11:01.549Z,11.50
2022-11-28T06:13:30.464Z,12.30
2022-11-28T06:16:02.986Z,11.60
2022-11-28T06:18:32.231Z,11.60
2022-11-28T06:21:05.555Z,12.60
2022-11-28T06:23:42.195Z,11.90
2022-11-28T06:26:15.919Z,12.00
2022-11-28T06:31:47.329Z,12.60
2022-11-28T06:34:27.889Z,14.10
2022-11-28T06:36:55.729Z,12.10
2022-11-28T06:39:24.096Z,13.20
2022-11-28T06:41:52.368Z,13.00
2022-11-28T06:44:26.955Z,13.10
2022-11-28T06:47:02.784Z,12.40
2022-11-28T06:49:36.397Z,13.50
2022-11-28T06:52:04.420Z,13.50
2022-11-28T06:54:32.389Z,14.40
2022-11-28T06:57:02.400Z,12.90
2022-11-28T06:59:34.166Z,11.90
2022-11-28T07:02:08.063Z,11.30
2022-11-28T07:04:37.334Z,11.70
2022-11-28T07:07:05.032Z,11.20
2022-11-28T07:09:32.726Z,10.80
2022-11-28T07:12:01.442Z,10.40
2022-11-28T07:14:33.559Z,11.70
2022-11-28T07:17:01.295Z,10.70
2022-11-28T07:19:30.639Z,11.20
2022-11-28T07:21:58.478Z,10.20
2022-11-28T07:24:27.640Z,10.70
2022-11-28T07:26:56.254Z,10.80
2022-11-28T07:29:24.791Z,11.10
2022-11-28T07:31:52.394Z,10.50
2022-11-28T07:34:23.337Z,10.10
2022-11-28T07:36:52.183Z,10.70
2022-11-28T07:39:20.680Z,11.20
2022-11-28T07:41:49.357Z,9.20
2022-11-28T07:44:30.073Z,9.80
2022-11-28T07:47:21.225Z,11.00
2022-11-28T07:49:56.429Z,10.70
2022-11-28T07:52:24.146Z,9.00
2022-11-28T07:54:53.264Z,11.10
2022-11-28T07:57:22.154Z,11.50
2022-11-28T07:59:50.344Z,12.50
2022-11-28T08:02:19.983Z,11.80
2022-11-28T08:04:53.939Z,12.30
2022-11-28T08:07:40.877Z,11.70
2022-11-28T08:10:09.629Z,11.60
2022-11-28T08:12:38.096Z,10.50
2022-11-28T08:15:46.324Z,12.80
2022-11-28T08:18:17.600Z,12.30
2022-11-28T08:20:45.414Z,14.50
2022-11-28T08:23:14.119Z,13.60
2022-11-28T08:25:46.005Z,13.60
2022-11-28T08:28:15.744Z,11.70
2022-11-28T08:30:44.485Z,13.00
2022-11-28T08:33:13.868Z,12.80
2022-11-28T08:35:42.033Z,12.20
2022-11-28T08:38:10.470Z,13.50
2022-11-28T08:40:38.845Z,12.10
2022-11-28T08:43:08.704Z,12.40
2022-11-28T08:45:40.449Z,12.00
2022-11-28T08:48:16.743Z,11.90
2022-11-28T08:50:49.647Z,11.70
2022-11-28T08:53:18.546Z,11.90
2022-11-28T08:55:48.147Z,9.70
2022-11-28T08:58:16.513Z,11.80
2022-11-28T09:00:46.008Z,11.40
2022-11-28T09:03:17.780Z,10.80
2022-11-28T09:05:47.673Z,9.70
2022-11-28T09:08:19.055Z,10.00
2022-11-28T09:10:47.560Z,9.20
2022-11-28T09:13:15.469Z,12.50
2022-11-28T09:15:51.143Z,11.70
2022-11-28T09:18:21.114Z,13.20
2022-11-28T09:20:49.280Z,14.10
2022-11-28T09:23:18.322Z,11.50
2022-11-28T09:25:46.494Z,12.80
2022-11-28T09:28:14.357Z,12.50
2022-11-28T09:30:42.802Z,12.20
2022-11-28T09:33:13.417Z,12.50
2022-11-28T09:35:41.729Z,11.50
2022-11-28T09:38:10.016Z,12.10
2022-11-28T09:40:42.148Z,12.40
2022-11-28T09:43:36.170Z,12.20
2022-11-28T09:46:14.106Z,10.10
2022-11-28T09:48:50.552Z,10.70
2022-11-28T09:51:51.277Z,9.90
2022-11-28T09:54:40.672Z,10.80
2022-11-28T09:57:33.515Z,11.60
2022-11-28T10:00:02.405Z,10.80
2022-11-28T10:03:07.224Z,10.60
2022-11-28T10:19:25.583Z,10.00
2022-11-28T10:22:03.742Z,10.70
2022-11-28T10:25:00.533Z,11.10
2022-11-28T10:27:36.140Z,12.40
2022-11-28T10:30:35.343Z,12.00
2022-11-28T10:33:31.187Z,9.60
2022-11-28T10:36:04.026Z,11.00
2022-11-28T10:38:35.278Z,10.90
2022-11-28T10:41:21.725Z,9.70
2022-11-28T10:44:21.483Z,9.50
2022-11-28T10:47:26.372Z,8.40
2022-11-28T10:50:32.831Z,9.00
2022-11-28T10:53:17.084Z,9.70
2022-11-28T10:56:16.442Z,8.60
2022-11-28T10:58:48.651Z,10.10
2022-11-28T11:01:18.774Z,11.20
2022-11-28T11:03:48.457Z,8.10
2022-11-28T11:06:17.963Z,9.40
2022-11-28T11:08:48.705Z,10.80
2022-11-28T11:11:40.658Z,12.20
2022-11-28T11:14:12.063Z,12.70
2022-11-28T11:17:00.682Z,12.10
2022-11-28T11:19:42.675Z,12.00
2022-11-28T11:22:31.834Z,11.50
2022-11-28T11:25:17.633Z,11.40
2022-11-28T11:27:56.031Z,11.80
2022-11-28T11:30:39.702Z,10.20
2022-11-28T11:33:25.575Z,9.40
2022-11-28T11:35:58.233Z,10.70
2022-11-28T11:38:36.172Z,10.10
2022-11-28T11:41:31.484Z,10.50
2022-11-28T11:44:15.724Z,10.00
2022-11-28T11:46:54.692Z,9.50
2022-11-28T11:49:36.210Z,10.00
2022-11-28T11:52:22.982Z,10.80
2022-11-28T11:54:59.327Z,10.10
2022-11-28T11:57:51.011Z,10.80
2022-11-28T12:00:38.075Z,11.00
2022-11-28T12:04:08.499Z,10.90
2022-11-28T12:06:53.468Z,7.90
2022-11-28T12:09:40.841Z,9.60
2022-11-28T12:12:33.482Z,8.10
2022-11-28T12:15:14.996Z,9.10
2022-11-28T12:18:28.761Z,9.30
2022-11-28T12:21:37.810Z,11.40
2022-11-28T12:24:27.227Z,11.30
2022-11-28T12:27:12.467Z,10.70
2022-11-28T12:30:14.960Z,9.80
2022-11-28T12:33:08.358Z,9.50
2022-11-28T12:35:48.241Z,8.80
2022-11-28T12:38:51.900Z,8.50
2022-11-28T12:41:40.180Z,9.20
2022-11-28T12:44:33.484Z,9.50
2022-11-28T12:47:39.321Z,7.80
2022-11-28T12:50:33.309Z,8.10
2022-11-28T12:53:21.799Z,7.60
2022-11-28T12:55:59.966Z,7.90
2022-11-28T12:58:53.265Z,7.20
2022-11-28T13:01:40.895Z,8.20
2022-11-28T13:04:31.833Z,8.40
2022-11-28T13:07:48.794Z,8.30
2022-11-28T13:10:31.272Z,7.30
2022-11-28T13:13:23.567Z,7.10
2022-11-28T13:16:29.582Z,6.10
2022-11-28T13:19:10.504Z,8.20
2022-11-28T13:22:13.654Z,6.80
2022-11-28T13:25:27.325Z,9.30
2022-11-28T13:28:22.757Z,6.90
2022-11-28T13:31:26.041Z,7.80
2022-11-28T13:33:58.541Z,6.40
2022-11-28T13:41:02.477Z,7.20
2022-11-28T13:44:17.732Z,6.00
2022-11-28T13:46:53.831Z,7.60
2022-11-28T13:50:44.968Z,7.80
2022-11-28T13:53:25.428Z,8.60
2022-11-28T13:56:08.888Z,7.50
2022-11-28T13:59:04.350Z,8.30
2022-11-28T14:01:49.085Z,8.20
2022-11-28T14:04:23.443Z,7.60
2022-11-28T14:07:06.011Z,8.40
2022-11-28T14:10:06.027Z,7.20
2022-11-28T14:12:49.568Z,5.90
2022-11-28T14:15:22.350Z,7.90
2022-11-28T14:18:55.499Z,7.50
2022-11-28T14:21:49.814Z,8.60
2022-11-28T14:24:37.756Z,6.00
2022-11-28T14:27:09.102Z,7.70
2022-11-28T14:29:46.366Z,8.50
2022-11-28T14:32:43.357Z,8.90
2022-11-28T14:35:51.564Z,6.90
2022-11-28T14:38:59.948Z,5.90
2022-11-28T14:41:56.640Z,7.00
2022-11-28T14:44:51.831Z,6.80
2022-11-28T14:47:48.723Z,6.50
2022-11-28T14:50:21.279Z,5.70
2022-11-28T14:52:59.428Z,6.80
2022-11-28T14:55:29.348Z,7.10
2022-11-28T14:58:42.674Z,5.80
2022-11-28T15:01:22.859Z,6.60
2022-11-28T15:04:27.712Z,7.40
2022-11-28T15:07:05.595Z,7.60
2022-11-28T15:10:07.255Z,11.40
2022-11-28T15:12:53.950Z,10.50
2022-11-28T15:15:30.213Z,8.30
2022-11-28T15:18:19.552Z,7.50
2022-11-28T15:23:54.492Z,7.30
2022-11-28T15:26:42.270Z,6.50
2022-11-28T15:29:46.830Z,7.90
2022-11-28T15:32:19.025Z,6.70
2022-11-28T15:35:12.269Z,6.30
2022-11-28T15:38:02.086Z,6.00
2022-11-28T15:40:35.953Z,8.00
2022-11-28T15:43:12.857Z,9.20
2022-11-28T15:46:01.783Z,6.80
2022-11-28T15:48:52.568Z,6.70
2022-11-28T15:51:45.459Z,7.00
2022-11-28T15:54:55.716Z,6.80
2022-11-28T15:57:44.329Z,7.90
2022-11-28T16:00:23.375Z,6.80
2022-11-28T16:14:24.335Z,8.70
2022-11-28T16:16:52.469Z,8.90
2022-11-28T16:19:35.053Z,8.40
2022-11-28T16:22:59.861Z,7.00
2022-11-28T16:25:31.200Z,7.40
2022-11-28T16:28:01.104Z,7.30
2022-11-28T16:30:38.687Z,7.30
2022-11-28T16:33:36.745Z,8.30
2022-11-28T16:36:35.396Z,9.70
2022-11-28T16:39:12.288Z,9.10
2022-11-28T16:42:27.798Z,9.00
2022-11-28T16:45:33.602Z,8.80
2022-11-28T16:48:19.555Z,7.60
2022-11-28T16:51:39.399Z,8.90
2022-11-28T16:54:32.014Z,9.60
2022-11-28T16:57:20.785Z,7.50
2022-11-28T17:10:50.714Z,11.40
2022-11-28T17:13:31.426Z,9.80
2022-11-28T17:16:08.973Z,9.10
2022-11-28T17:18:48.864Z,9.90
2022-11-28T17:21:33.132Z,8.80
2022-11-28T17:24:02.493Z,8.30
2022-11-28T17:26:32.653Z,9.60
2022-11-28T17:29:11.644Z,8.20
2022-11-28T17:31:57.088Z,8.50
2022-11-28T17:34:36.096Z,8.80
2022-11-28T17:37:11.203Z,9.20
2022-11-28T17:40:05.825Z,10.10
2022-11-28T17:42:37.198Z,9.60
2022-11-28T17:45:31.677Z,10.30
2022-11-28T17:48:37.625Z,8.50
2022-11-28T18:05:11.728Z,10.90
2022-11-28T18:07:43.147Z,10.40
2022-11-28T18:10:15.685Z,10.00
2022-11-28T18:12:47.247Z,10.50
2022-11-28T18:15:17.930Z,9.10
2022-11-28T18:20:29.383Z,9.40
2022-11-28T18:24:04.073Z,9.90
2022-11-28T18:26:35.387Z,11.70
2022-11-28T18:29:07.427Z,11.30
2022-11-28T18:34:11.154Z,11.60
2022-11-28T18:36:44.811Z,13.70
2022-11-28T18:39:16.314Z,13.30
2022-11-28T18:41:50.522Z,14.70
2022-11-28T18:44:27.094Z,14.70
2022-11-28T18:46:56.492Z,14.80
2022-11-28T18:49:31.038Z,13.90
2022-11-28T18:52:02.718Z,14.30
2022-11-28T18:54:37.909Z,13.10
2022-11-28T18:57:13.074Z,11.70
2022-11-28T18:59:54.191Z,12.00
2022-11-28T19:06:09.479Z,11.70
2022-11-28T19:08:45.982Z,11.90
2022-11-28T19:11:36.165Z,11.50
2022-11-28T19:14:18.948Z,11.00
2022-11-28T19:16:57.071Z,11.40
2022-11-28T19:19:30.798Z,10.70
2022-11-28T19:22:00.125Z,10.80
2022-11-28T19:24:33.499Z,11.20
2022-11-28T19:27:14.231Z,8.80
2022-11-28T19:30:13.437Z,9.50
2022-11-28T19:32:44.372Z,10.30
2022-11-28T19:35:14.003Z,10.80
2022-11-28T19:37:47.875Z,11.50
2022-11-28T19:40:29.387Z,10.90
2022-11-28T19:43:02.667Z,12.20
2022-11-28T19:45:32.364Z,12.00
2022-11-28T19:48:02.832Z,11.50
2022-11-28T19:50:57.509Z,10.60
2022-11-28T19:53:29.822Z,10.90
2022-11-28T19:56:08.515Z,11.40
2022-11-28T19:58:38.675Z,10.10
2022-11-28T20:01:21.379Z,10.00
2022-11-28T20:03:56.360Z,11.60
2022-11-28T20:06:32.048Z,12.00
2022-11-28T20:09:41.434Z,15.60
2022-11-28T20:12:13.609Z,12.40
2022-11-28T20:14:42.917Z,13.90
2022-11-28T20:17:13.890Z,13.60
2022-11-28T20:19:46.188Z,12.70
2022-11-28T20:22:15.974Z,13.10
2022-11-28T20:24:46.308Z,14.50
2022-11-28T20:27:25.825Z,14.40
2022-11-28T20:30:08.003Z,13.30
2022-11-28T20:32:38.010Z,13.50
2022-11-28T20:35:10.413Z,13.80
2022-11-28T20:37:40.338Z,13.40
2022-11-28T20:40:10.081Z,13.80
2022-11-28T20:42:42.108Z,14.20
2022-11-28T20:45:12.130Z,13.90
2022-11-28T20:47:46.746Z,13.20
2022-11-28T20:50:18.889Z,13.10
2022-11-28T20:52:51.718Z,13.70
2022-11-28T20:55:27.283Z,14.70
2022-11-28T20:57:57.257Z,14.20
2022-11-28T21:00:30.947Z,13.30
2022-11-28T21:03:00.616Z,14.70
2022-11-28T21:05:30.589Z,13.70
2022-11-28T21:08:02.176Z,13.00
2022-11-28T21:10:33.259Z,13.10
2022-11-28T21:13:02.412Z,13.50
2022-11-28T21:15:42.804Z,13.30
2022-11-28T21:18:15.072Z,14.50
2022-11-28T21:20:47.326Z,13.70
2022-11-28T21:23:17.135Z,14.70
2022-11-28T21:25:46.566Z,12.90
2022-11-28T21:28:23.580Z,13.00
2022-11-28T21:31:00.242Z,12.70
2022-11-28T21:33:29.301Z,13.00
2022-11-28T21:36:05.302Z,12.70
2022-11-28T21:38:39.731Z,13.80
2022-11-28T21:41:08.911Z,12.80
2022-11-28T21:43:37.716Z,13.70
2022-11-28T21:46:08.080Z,14.00
2022-11-28T21:48:37.314Z,12.90
2022-11-28T21:51:07.023Z,13.20
2022-11-28T21:53:36.915Z,13.20
2022-11-28T21:56:06.575Z,14.00
2022-11-28T21:58:35.595Z,14.00
2022-11-28T22:01:12.134Z,14.80
2022-11-28T22:03:44.103Z,14.10
2022-11-28T22:06:24.051Z,13.50
2022-11-28T22:08:53.745Z,13.20
2022-11-28T22:11:24.828Z,13.30
2022-11-28T22:13:53.658Z,13.20
2022-11-28T22:16:27.216Z,14.00
2022-11-28T22:19:00.594Z,12.50
2022-11-28T22:24:21.875Z,13.20
2022-11-28T22:26:53.169Z,13.00
2022-11-28T22:29:23.738Z,13.60
2022-11-28T22:31:53.145Z,13.50
2022-11-28T22:34:25.089Z,13.30
2022-11-28T22:36:54.116Z,14.30
2022-11-28T22:39:23.585Z,14.20
2022-11-28T22:41:52.344Z,13.60
2022-11-28T22:44:22.544Z,12.50
2022-11-28T22:46:51.557Z,14.80
2022-11-28T22:49:21.546Z,14.80
2022-11-28T22:51:51.331Z,13.90
2022-11-28T22:54:20.673Z,14.00
2022-11-28T22:56:49.593Z,14.40
2022-11-28T22:59:19.307Z,14.00
2022-11-28T23:01:49.346Z,14.10
2022-11-28T23:04:18.954Z,14.20
2022-11-28T23:06:47.798Z,14.10
2022-11-28T23:09:16.610Z,14.70
2022-11-28T23:11:46.238Z,14.20
2022-11-28T23:14:15.950Z,13.30
2022-11-28T23:16:45.652Z,13.60
2022-11-28T23:19:19.618Z,13.80
2022-11-28T23:21:50.259Z,15.10
2022-11-28T23:24:23.736Z,14.50
2022-11-28T23:26:53.423Z,13.90
2022-11-28T23:29:26.127Z,13.70
2022-11-28T23:31:54.916Z,13.10
2022-11-28T23:34:26.230Z,14.60
2022-11-28T23:36:55.199Z,15.30
2022-11-28T23:39:24.468Z,15.00
2022-11-28T23:41:53.757Z,14.90
2022-11-28T23:44:22.639Z,14.40
2022-11-28T23:46:51.556Z,13.50
2022-11-28T23:49:20.333Z,14.00
2022-11-28T23:51:49.386Z,14.50
2022-11-28T23:54:18.826Z,14.70
2022-11-28T23:56:47.645Z,14.70
2022-11-28T23:59:17.395Z,14.20
